sensor_id;sensor_type;location;lat;lon;timestamp;P1;durP1;ratioP1;P2;durP2;ratioP2
66256;SDS011;53049;43.446;3.698;2023-07-31T00:02:03;6.97;;;2.20;;
66256;SDS011;53049;43.446;3.698;2023-07-31T00:04:29;5.63;;;2.10;;
66256;SDS011;53049;43.446;3.698;2023-07-31T00:06:54;4.90;;;2.30;;
66256;SDS011;53049;43.446;3.698;2023-07-31T00:09:20;5.40;;;2.20;;
66256;SDS011;53049;43.446;3.698;2023-07-31T00:11:46;5.20;;;2.30;;
66256;SDS011;53049;43.446;3.698;2023-07-31T00:14:11;5.93;;;2.20;;
66256;SDS011;53049;43.446;3.698;2023-07-31T00:16:37;4.85;;;2.20;;
66256;SDS011;53049;43.446;3.698;2023-07-31T00:19:02;4.70;;;2.30;;
66256;SDS011;53049;43.446;3.698;2023-07-31T00:21:28;5.05;;;2.15;;
66256;SDS011;53049;43.446;3.698;2023-07-31T00:23:54;5.00;;;2.30;;
66256;SDS011;53049;43.446;3.698;2023-07-31T00:26:19;6.22;;;2.30;;
66256;SDS011;53049;43.446;3.698;2023-07-31T00:28:45;4.82;;;2.35;;
66256;SDS011;53049;43.446;3.698;2023-07-31T00:31:10;5.57;;;2.20;;
66256;SDS011;53049;43.446;3.698;2023-07-31T00:33:37;4.93;;;2.58;;
66256;SDS011;53049;43.446;3.698;2023-07-31T00:36:03;4.28;;;2.13;;
66256;SDS011;53049;43.446;3.698;2023-07-31T00:38:29;7.10;;;2.80;;
66256;SDS011;53049;43.446;3.698;2023-07-31T00:40:54;6.32;;;2.30;;
66256;SDS011;53049;43.446;3.698;2023-07-31T00:43:20;6.07;;;2.28;;
66256;SDS011;53049;43.446;3.698;2023-07-31T00:45:45;5.38;;;2.20;;
66256;SDS011;53049;43.446;3.698;2023-07-31T00:48:11;5.20;;;2.30;;
66256;SDS011;53049;43.446;3.698;2023-07-31T00:50:37;5.72;;;2.47;;
66256;SDS011;53049;43.446;3.698;2023-07-31T00:53:03;4.85;;;2.25;;
66256;SDS011;53049;43.446;3.698;2023-07-31T00:55:29;4.50;;;2.13;;
66256;SDS011;53049;43.446;3.698;2023-07-31T00:57:55;7.80;;;2.22;;
66256;SDS011;53049;43.446;3.698;2023-07-31T01:00:21;4.93;;;2.33;;
66256;SDS011;53049;43.446;3.698;2023-07-31T01:02:48;7.05;;;2.50;;
66256;SDS011;53049;43.446;3.698;2023-07-31T01:05:15;4.75;;;2.40;;
66256;SDS011;53049;43.446;3.698;2023-07-31T01:12:44;5.22;;;2.45;;
66256;SDS011;53049;43.446;3.698;2023-07-31T01:15:11;5.57;;;2.38;;
66256;SDS011;53049;43.446;3.698;2023-07-31T01:17:37;4.47;;;2.22;;
66256;SDS011;53049;43.446;3.698;2023-07-31T01:20:05;4.55;;;2.30;;
66256;SDS011;53049;43.446;3.698;2023-07-31T01:25:32;3.13;;;2.10;;
66256;SDS011;53049;43.446;3.698;2023-07-31T01:28:11;6.07;;;2.17;;
66256;SDS011;53049;43.446;3.698;2023-07-31T01:30:43;4.55;;;2.30;;
66256;SDS011;53049;43.446;3.698;2023-07-31T01:33:11;6.80;;;2.28;;
66256;SDS011;53049;43.446;3.698;2023-07-31T01:35:37;5.70;;;2.40;;
66256;SDS011;53049;43.446;3.698;2023-07-31T01:38:04;5.00;;;2.20;;
66256;SDS011;53049;43.446;3.698;2023-07-31T01:40:30;5.72;;;2.60;;
66256;SDS011;53049;43.446;3.698;2023-07-31T01:42:56;4.95;;;2.33;;
66256;SDS011;53049;43.446;3.698;2023-07-31T01:45:21;5.82;;;2.97;;
66256;SDS011;53049;43.446;3.698;2023-07-31T01:47:47;6.72;;;2.30;;
66256;SDS011;53049;43.446;3.698;2023-07-31T01:50:12;7.07;;;2.42;;
66256;SDS011;53049;43.446;3.698;2023-07-31T01:52:38;7.57;;;2.78;;
66256;SDS011;53049;43.446;3.698;2023-07-31T01:55:04;5.93;;;2.42;;
66256;SDS011;53049;43.446;3.698;2023-07-31T01:57:29;4.25;;;2.17;;
66256;SDS011;53049;43.446;3.698;2023-07-31T01:59:55;7.80;;;2.83;;
66256;SDS011;53049;43.446;3.698;2023-07-31T02:02:21;5.65;;;2.35;;
66256;SDS011;53049;43.446;3.698;2023-07-31T02:04:48;5.63;;;2.40;;
66256;SDS011;53049;43.446;3.698;2023-07-31T02:07:14;5.63;;;2.33;;
66256;SDS011;53049;43.446;3.698;2023-07-31T02:09:40;5.20;;;2.50;;
66256;SDS011;53049;43.446;3.698;2023-07-31T02:12:05;4.90;;;2.33;;
66256;SDS011;53049;43.446;3.698;2023-07-31T02:14:33;5.18;;;2.20;;
66256;SDS011;53049;43.446;3.698;2023-07-31T02:16:59;6.88;;;2.40;;
66256;SDS011;53049;43.446;3.698;2023-07-31T02:19:25;5.15;;;2.30;;
66256;SDS011;53049;43.446;3.698;2023-07-31T02:21:50;6.75;;;2.28;;
66256;SDS011;53049;43.446;3.698;2023-07-31T02:24:16;4.90;;;2.20;;
66256;SDS011;53049;43.446;3.698;2023-07-31T02:26:42;6.82;;;2.30;;
66256;SDS011;53049;43.446;3.698;2023-07-31T02:29:08;4.78;;;2.22;;
66256;SDS011;53049;43.446;3.698;2023-07-31T02:31:34;6.70;;;2.45;;
66256;SDS011;53049;43.446;3.698;2023-07-31T02:33:59;4.97;;;2.10;;
66256;SDS011;53049;43.446;3.698;2023-07-31T02:36:25;7.05;;;2.33;;
66256;SDS011;53049;43.446;3.698;2023-07-31T02:38:51;4.78;;;2.40;;
66256;SDS011;53049;43.446;3.698;2023-07-31T02:41:16;6.35;;;2.35;;
66256;SDS011;53049;43.446;3.698;2023-07-31T02:43:42;6.35;;;2.30;;
66256;SDS011;53049;43.446;3.698;2023-07-31T02:46:08;7.93;;;2.45;;
66256;SDS011;53049;43.446;3.698;2023-07-31T02:48:33;4.93;;;2.30;;
66256;SDS011;53049;43.446;3.698;2023-07-31T02:50:59;3.80;;;2.22;;
66256;SDS011;53049;43.446;3.698;2023-07-31T02:53:24;4.65;;;2.33;;
66256;SDS011;53049;43.446;3.698;2023-07-31T02:55:50;6.88;;;2.90;;
66256;SDS011;53049;43.446;3.698;2023-07-31T02:58:15;5.28;;;2.33;;
66256;SDS011;53049;43.446;3.698;2023-07-31T03:00:42;5.13;;;2.50;;
66256;SDS011;53049;43.446;3.698;2023-07-31T03:03:08;7.88;;;2.60;;
66256;SDS011;53049;43.446;3.698;2023-07-31T03:05:33;5.22;;;2.60;;
66256;SDS011;53049;43.446;3.698;2023-07-31T03:07:59;4.47;;;2.40;;
66256;SDS011;53049;43.446;3.698;2023-07-31T03:10:25;6.95;;;2.40;;
66256;SDS011;53049;43.446;3.698;2023-07-31T03:12:50;6.20;;;2.10;;
66256;SDS011;53049;43.446;3.698;2023-07-31T03:15:16;5.18;;;2.80;;
66256;SDS011;53049;43.446;3.698;2023-07-31T03:17:41;5.00;;;2.25;;
66256;SDS011;53049;43.446;3.698;2023-07-31T03:20:07;5.45;;;2.50;;
66256;SDS011;53049;43.446;3.698;2023-07-31T03:22:33;6.28;;;2.40;;
66256;SDS011;53049;43.446;3.698;2023-07-31T03:25:00;7.28;;;2.40;;
66256;SDS011;53049;43.446;3.698;2023-07-31T03:27:26;5.20;;;2.40;;
66256;SDS011;53049;43.446;3.698;2023-07-31T03:29:52;5.85;;;2.47;;
66256;SDS011;53049;43.446;3.698;2023-07-31T03:32:17;4.03;;;2.25;;
66256;SDS011;53049;43.446;3.698;2023-07-31T03:34:43;6.07;;;2.30;;
66256;SDS011;53049;43.446;3.698;2023-07-31T03:37:09;6.82;;;2.40;;
66256;SDS011;53049;43.446;3.698;2023-07-31T03:39:35;6.93;;;2.60;;
66256;SDS011;53049;43.446;3.698;2023-07-31T03:42:00;4.85;;;2.40;;
66256;SDS011;53049;43.446;3.698;2023-07-31T03:44:26;5.53;;;2.33;;
66256;SDS011;53049;43.446;3.698;2023-07-31T03:46:52;6.07;;;2.38;;
66256;SDS011;53049;43.446;3.698;2023-07-31T03:49:17;5.25;;;2.55;;
66256;SDS011;53049;43.446;3.698;2023-07-31T03:51:43;5.88;;;2.88;;
66256;SDS011;53049;43.446;3.698;2023-07-31T03:54:09;6.45;;;2.50;;
66256;SDS011;53049;43.446;3.698;2023-07-31T03:56:35;5.25;;;2.28;;
66256;SDS011;53049;43.446;3.698;2023-07-31T03:59:01;4.25;;;2.22;;
66256;SDS011;53049;43.446;3.698;2023-07-31T04:01:26;5.55;;;2.40;;
66256;SDS011;53049;43.446;3.698;2023-07-31T04:03:52;6.78;;;2.50;;
66256;SDS011;53049;43.446;3.698;2023-07-31T04:06:17;5.13;;;2.33;;
66256;SDS011;53049;43.446;3.698;2023-07-31T04:08:43;5.57;;;2.60;;
66256;SDS011;53049;43.446;3.698;2023-07-31T04:11:12;6.97;;;2.50;;
66256;SDS011;53049;43.446;3.698;2023-07-31T04:13:38;6.90;;;2.50;;
66256;SDS011;53049;43.446;3.698;2023-07-31T04:16:04;5.60;;;2.53;;
66256;SDS011;53049;43.446;3.698;2023-07-31T04:18:30;6.95;;;2.42;;
66256;SDS011;53049;43.446;3.698;2023-07-31T04:20:57;6.38;;;2.78;;
66256;SDS011;53049;43.446;3.698;2023-07-31T04:23:24;6.25;;;2.40;;
66256;SDS011;53049;43.446;3.698;2023-07-31T04:25:50;6.20;;;2.40;;
66256;SDS011;53049;43.446;3.698;2023-07-31T04:28:15;6.43;;;2.45;;
66256;SDS011;53049;43.446;3.698;2023-07-31T04:30:41;6.25;;;2.50;;
66256;SDS011;53049;43.446;3.698;2023-07-31T04:33:07;6.53;;;2.65;;
66256;SDS011;53049;43.446;3.698;2023-07-31T04:35:32;5.85;;;2.70;;
66256;SDS011;53049;43.446;3.698;2023-07-31T04:37:58;9.35;;;3.38;;
66256;SDS011;53049;43.446;3.698;2023-07-31T04:40:23;6.25;;;2.78;;
66256;SDS011;53049;43.446;3.698;2023-07-31T04:42:49;5.43;;;2.40;;
66256;SDS011;53049;43.446;3.698;2023-07-31T04:45:15;5.63;;;2.50;;
66256;SDS011;53049;43.446;3.698;2023-07-31T04:47:41;6.28;;;2.75;;
66256;SDS011;53049;43.446;3.698;2023-07-31T04:50:06;6.55;;;2.47;;
66256;SDS011;53049;43.446;3.698;2023-07-31T04:52:32;6.25;;;2.60;;
66256;SDS011;53049;43.446;3.698;2023-07-31T04:54:58;6.38;;;2.70;;
66256;SDS011;53049;43.446;3.698;2023-07-31T04:57:23;5.30;;;2.72;;
66256;SDS011;53049;43.446;3.698;2023-07-31T04:59:49;6.00;;;2.58;;
66256;SDS011;53049;43.446;3.698;2023-07-31T05:02:15;8.60;;;2.65;;
66256;SDS011;53049;43.446;3.698;2023-07-31T05:04:40;6.30;;;2.40;;
66256;SDS011;53049;43.446;3.698;2023-07-31T05:07:06;5.85;;;2.72;;
66256;SDS011;53049;43.446;3.698;2023-07-31T05:09:32;7.60;;;2.67;;
66256;SDS011;53049;43.446;3.698;2023-07-31T05:11:58;6.72;;;2.47;;
66256;SDS011;53049;43.446;3.698;2023-07-31T05:14:23;4.97;;;2.58;;
66256;SDS011;53049;43.446;3.698;2023-07-31T05:16:49;4.00;;;2.17;;
66256;SDS011;53049;43.446;3.698;2023-07-31T05:19:14;9.10;;;2.70;;
66256;SDS011;53049;43.446;3.698;2023-07-31T05:21:40;10.38;;;3.00;;
66256;SDS011;53049;43.446;3.698;2023-07-31T05:24:07;5.38;;;2.58;;
66256;SDS011;53049;43.446;3.698;2023-07-31T05:26:32;6.93;;;2.53;;
66256;SDS011;53049;43.446;3.698;2023-07-31T05:28:58;11.00;;;2.70;;
66256;SDS011;53049;43.446;3.698;2023-07-31T05:31:24;8.02;;;2.80;;
66256;SDS011;53049;43.446;3.698;2023-07-31T05:33:50;8.82;;;2.67;;
66256;SDS011;53049;43.446;3.698;2023-07-31T05:36:16;6.35;;;2.45;;
66256;SDS011;53049;43.446;3.698;2023-07-31T05:38:42;7.75;;;2.80;;
66256;SDS011;53049;43.446;3.698;2023-07-31T05:41:09;5.97;;;2.30;;
66256;SDS011;53049;43.446;3.698;2023-07-31T05:43:36;4.35;;;2.17;;
66256;SDS011;53049;43.446;3.698;2023-07-31T05:46:02;7.10;;;2.72;;
66256;SDS011;53049;43.446;3.698;2023-07-31T05:48:28;4.32;;;2.15;;
66256;SDS011;53049;43.446;3.698;2023-07-31T05:50:53;8.07;;;2.72;;
66256;SDS011;53049;43.446;3.698;2023-07-31T05:53:19;8.65;;;3.13;;
66256;SDS011;53049;43.446;3.698;2023-07-31T05:55:45;7.40;;;2.72;;
66256;SDS011;53049;43.446;3.698;2023-07-31T05:58:10;11.52;;;3.10;;
66256;SDS011;53049;43.446;3.698;2023-07-31T06:00:36;5.55;;;2.35;;
66256;SDS011;53049;43.446;3.698;2023-07-31T06:03:02;7.18;;;2.63;;
66256;SDS011;53049;43.446;3.698;2023-07-31T06:05:27;7.10;;;3.25;;
66256;SDS011;53049;43.446;3.698;2023-07-31T06:07:55;11.23;;;3.30;;
66256;SDS011;53049;43.446;3.698;2023-07-31T06:10:21;12.88;;;4.13;;
66256;SDS011;53049;43.446;3.698;2023-07-31T06:12:46;9.00;;;3.00;;
66256;SDS011;53049;43.446;3.698;2023-07-31T06:15:12;10.93;;;3.08;;
66256;SDS011;53049;43.446;3.698;2023-07-31T06:17:38;11.98;;;3.40;;
66256;SDS011;53049;43.446;3.698;2023-07-31T06:20:06;15.48;;;3.30;;
66256;SDS011;53049;43.446;3.698;2023-07-31T06:22:32;9.23;;;3.03;;
66256;SDS011;53049;43.446;3.698;2023-07-31T06:24:57;8.98;;;3.10;;
66256;SDS011;53049;43.446;3.698;2023-07-31T06:27:23;8.25;;;3.03;;
66256;SDS011;53049;43.446;3.698;2023-07-31T06:29:49;8.32;;;3.38;;
66256;SDS011;53049;43.446;3.698;2023-07-31T06:32:15;10.40;;;3.05;;
66256;SDS011;53049;43.446;3.698;2023-07-31T06:34:40;10.25;;;3.15;;
66256;SDS011;53049;43.446;3.698;2023-07-31T06:37:06;9.82;;;3.13;;
66256;SDS011;53049;43.446;3.698;2023-07-31T06:39:32;21.70;;;3.58;;
66256;SDS011;53049;43.446;3.698;2023-07-31T06:41:57;10.18;;;3.08;;
66256;SDS011;53049;43.446;3.698;2023-07-31T06:44:23;9.88;;;3.80;;
66256;SDS011;53049;43.446;3.698;2023-07-31T06:46:49;8.88;;;3.33;;
66256;SDS011;53049;43.446;3.698;2023-07-31T06:49:14;12.25;;;3.63;;
66256;SDS011;53049;43.446;3.698;2023-07-31T06:51:40;9.63;;;3.33;;
66256;SDS011;53049;43.446;3.698;2023-07-31T06:54:06;7.35;;;3.13;;
66256;SDS011;53049;43.446;3.698;2023-07-31T06:56:32;8.30;;;3.40;;
66256;SDS011;53049;43.446;3.698;2023-07-31T06:58:58;17.52;;;3.83;;
66256;SDS011;53049;43.446;3.698;2023-07-31T07:01:24;11.63;;;3.25;;
66256;SDS011;53049;43.446;3.698;2023-07-31T07:03:49;12.73;;;3.08;;
66256;SDS011;53049;43.446;3.698;2023-07-31T07:06:18;18.48;;;3.22;;
66256;SDS011;53049;43.446;3.698;2023-07-31T07:08:43;13.70;;;3.30;;
66256;SDS011;53049;43.446;3.698;2023-07-31T07:11:09;28.88;;;6.32;;
66256;SDS011;53049;43.446;3.698;2023-07-31T07:13:35;26.58;;;5.30;;
66256;SDS011;53049;43.446;3.698;2023-07-31T07:16:01;40.17;;;7.00;;
66256;SDS011;53049;43.446;3.698;2023-07-31T07:18:26;16.23;;;3.97;;
66256;SDS011;53049;43.446;3.698;2023-07-31T07:20:52;17.00;;;4.10;;
66256;SDS011;53049;43.446;3.698;2023-07-31T07:23:19;20.33;;;4.15;;
66256;SDS011;53049;43.446;3.698;2023-07-31T07:25:46;10.05;;;2.90;;
66256;SDS011;53049;43.446;3.698;2023-07-31T07:28:12;13.60;;;3.33;;
66256;SDS011;53049;43.446;3.698;2023-07-31T07:30:38;8.07;;;3.22;;
66256;SDS011;53049;43.446;3.698;2023-07-31T07:33:04;9.02;;;2.78;;
66256;SDS011;53049;43.446;3.698;2023-07-31T07:35:30;8.98;;;3.38;;
66256;SDS011;53049;43.446;3.698;2023-07-31T07:37:58;6.55;;;3.40;;
66256;SDS011;53049;43.446;3.698;2023-07-31T07:40:25;5.00;;;2.60;;
66256;SDS011;53049;43.446;3.698;2023-07-31T07:42:51;7.95;;;3.10;;
66256;SDS011;53049;43.446;3.698;2023-07-31T07:45:17;8.25;;;3.13;;
66256;SDS011;53049;43.446;3.698;2023-07-31T07:47:43;7.53;;;3.40;;
66256;SDS011;53049;43.446;3.698;2023-07-31T07:50:08;8.20;;;3.13;;
66256;SDS011;53049;43.446;3.698;2023-07-31T07:52:34;6.80;;;2.90;;
66256;SDS011;53049;43.446;3.698;2023-07-31T07:55:00;7.10;;;3.17;;
66256;SDS011;53049;43.446;3.698;2023-07-31T07:57:26;8.82;;;2.90;;
66256;SDS011;53049;43.446;3.698;2023-07-31T07:59:52;7.22;;;3.03;;
66256;SDS011;53049;43.446;3.698;2023-07-31T08:02:17;7.93;;;3.05;;
66256;SDS011;53049;43.446;3.698;2023-07-31T08:04:43;5.00;;;2.65;;
66256;SDS011;53049;43.446;3.698;2023-07-31T08:07:12;5.65;;;2.80;;
66256;SDS011;53049;43.446;3.698;2023-07-31T08:09:38;6.57;;;3.10;;
66256;SDS011;53049;43.446;3.698;2023-07-31T08:12:04;7.15;;;3.33;;
66256;SDS011;53049;43.446;3.698;2023-07-31T08:14:30;5.88;;;3.15;;
66256;SDS011;53049;43.446;3.698;2023-07-31T08:16:56;5.88;;;2.60;;
66256;SDS011;53049;43.446;3.698;2023-07-31T08:19:22;13.27;;;3.47;;
66256;SDS011;53049;43.446;3.698;2023-07-31T08:21:47;9.50;;;3.20;;
66256;SDS011;53049;43.446;3.698;2023-07-31T08:24:13;8.80;;;3.28;;
66256;SDS011;53049;43.446;3.698;2023-07-31T08:26:39;5.47;;;3.05;;
66256;SDS011;53049;43.446;3.698;2023-07-31T08:29:05;8.30;;;3.25;;
66256;SDS011;53049;43.446;3.698;2023-07-31T08:31:31;5.95;;;3.17;;
66256;SDS011;53049;43.446;3.698;2023-07-31T08:33:56;8.32;;;3.50;;
66256;SDS011;53049;43.446;3.698;2023-07-31T08:36:22;12.98;;;3.42;;
66256;SDS011;53049;43.446;3.698;2023-07-31T08:38:47;8.80;;;2.95;;
66256;SDS011;53049;43.446;3.698;2023-07-31T08:41:14;7.47;;;3.45;;
66256;SDS011;53049;43.446;3.698;2023-07-31T08:43:42;8.10;;;3.25;;
66256;SDS011;53049;43.446;3.698;2023-07-31T08:46:10;6.30;;;2.88;;
66256;SDS011;53049;43.446;3.698;2023-07-31T08:48:36;5.90;;;2.80;;
66256;SDS011;53049;43.446;3.698;2023-07-31T08:51:03;18.67;;;3.90;;
66256;SDS011;53049;43.446;3.698;2023-07-31T08:53:29;6.03;;;3.10;;
66256;SDS011;53049;43.446;3.698;2023-07-31T08:55:55;6.03;;;3.28;;
66256;SDS011;53049;43.446;3.698;2023-07-31T08:58:23;6.50;;;3.28;;
66256;SDS011;53049;43.446;3.698;2023-07-31T09:00:50;7.68;;;3.75;;
66256;SDS011;53049;43.446;3.698;2023-07-31T09:03:19;6.57;;;3.30;;
66256;SDS011;53049;43.446;3.698;2023-07-31T09:05:48;11.00;;;3.92;;
66256;SDS011;53049;43.446;3.698;2023-07-31T09:08:16;5.32;;;3.22;;
66256;SDS011;53049;43.446;3.698;2023-07-31T09:10:44;5.38;;;3.15;;
66256;SDS011;53049;43.446;3.698;2023-07-31T09:13:11;4.70;;;2.83;;
66256;SDS011;53049;43.446;3.698;2023-07-31T09:15:37;7.65;;;3.20;;
66256;SDS011;53049;43.446;3.698;2023-07-31T09:18:05;7.78;;;3.65;;
66256;SDS011;53049;43.446;3.698;2023-07-31T09:20:31;8.82;;;3.53;;
66256;SDS011;53049;43.446;3.698;2023-07-31T09:23:09;4.97;;;3.00;;
66256;SDS011;53049;43.446;3.698;2023-07-31T09:25:36;8.02;;;3.50;;
66256;SDS011;53049;43.446;3.698;2023-07-31T09:28:08;8.90;;;3.00;;
66256;SDS011;53049;43.446;3.698;2023-07-31T09:30:47;6.65;;;3.20;;
66256;SDS011;53049;43.446;3.698;2023-07-31T09:33:14;9.80;;;3.50;;
66256;SDS011;53049;43.446;3.698;2023-07-31T09:35:40;6.22;;;2.80;;
66256;SDS011;53049;43.446;3.698;2023-07-31T09:38:07;6.53;;;3.20;;
66256;SDS011;53049;43.446;3.698;2023-07-31T09:40:35;6.72;;;3.08;;
66256;SDS011;53049;43.446;3.698;2023-07-31T09:43:03;4.95;;;3.00;;
66256;SDS011;53049;43.446;3.698;2023-07-31T09:45:34;6.85;;;3.55;;
66256;SDS011;53049;43.446;3.698;2023-07-31T09:48:03;7.20;;;3.22;;
66256;SDS011;53049;43.446;3.698;2023-07-31T09:50:43;8.32;;;3.08;;
66256;SDS011;53049;43.446;3.698;2023-07-31T09:53:13;6.28;;;3.35;;
66256;SDS011;53049;43.446;3.698;2023-07-31T09:55:40;8.82;;;2.85;;
66256;SDS011;53049;43.446;3.698;2023-07-31T09:58:08;7.55;;;2.90;;
66256;SDS011;53049;43.446;3.698;2023-07-31T10:00:35;8.43;;;3.53;;
66256;SDS011;53049;43.446;3.698;2023-07-31T10:03:02;7.93;;;2.90;;
66256;SDS011;53049;43.446;3.698;2023-07-31T10:06:12;4.90;;;2.92;;
66256;SDS011;53049;43.446;3.698;2023-07-31T10:08:20;8.90;;;3.10;;
66256;SDS011;53049;43.446;3.698;2023-07-31T10:10:48;5.22;;;2.90;;
66256;SDS011;53049;43.446;3.698;2023-07-31T10:13:14;5.95;;;2.85;;
66256;SDS011;53049;43.446;3.698;2023-07-31T10:15:41;6.63;;;3.28;;
66256;SDS011;53049;43.446;3.698;2023-07-31T10:18:08;8.38;;;3.30;;
66256;SDS011;53049;43.446;3.698;2023-07-31T10:20:34;4.95;;;2.88;;
66256;SDS011;53049;43.446;3.698;2023-07-31T10:23:00;4.85;;;2.90;;
66256;SDS011;53049;43.446;3.698;2023-07-31T10:25:27;7.50;;;2.90;;
66256;SDS011;53049;43.446;3.698;2023-07-31T10:27:53;10.07;;;3.38;;
66256;SDS011;53049;43.446;3.698;2023-07-31T10:30:20;4.80;;;2.65;;
66256;SDS011;53049;43.446;3.698;2023-07-31T10:32:50;8.27;;;2.85;;
66256;SDS011;53049;43.446;3.698;2023-07-31T10:35:17;7.28;;;3.17;;
66256;SDS011;53049;43.446;3.698;2023-07-31T10:37:44;7.78;;;2.85;;
66256;SDS011;53049;43.446;3.698;2023-07-31T10:40:13;5.70;;;2.80;;
66256;SDS011;53049;43.446;3.698;2023-07-31T10:48:17;4.90;;;2.83;;
66256;SDS011;53049;43.446;3.698;2023-07-31T10:53:23;6.05;;;3.20;;
66256;SDS011;53049;43.446;3.698;2023-07-31T10:55:50;5.78;;;3.00;;
66256;SDS011;53049;43.446;3.698;2023-07-31T10:58:19;6.45;;;3.15;;
66256;SDS011;53049;43.446;3.698;2023-07-31T11:00:48;8.68;;;3.13;;
66256;SDS011;53049;43.446;3.698;2023-07-31T11:03:15;6.45;;;2.97;;
66256;SDS011;53049;43.446;3.698;2023-07-31T11:05:49;6.72;;;3.20;;
66256;SDS011;53049;43.446;3.698;2023-07-31T11:10:49;6.32;;;2.92;;
66256;SDS011;53049;43.446;3.698;2023-07-31T11:13:16;7.57;;;3.70;;
66256;SDS011;53049;43.446;3.698;2023-07-31T11:15:42;20.65;;;4.30;;
66256;SDS011;53049;43.446;3.698;2023-07-31T11:18:08;12.25;;;3.47;;
66256;SDS011;53049;43.446;3.698;2023-07-31T11:20:36;7.60;;;2.97;;
66256;SDS011;53049;43.446;3.698;2023-07-31T11:23:04;10.68;;;3.40;;
66256;SDS011;53049;43.446;3.698;2023-07-31T11:25:32;10.93;;;3.47;;
66256;SDS011;53049;43.446;3.698;2023-07-31T11:28:03;10.77;;;3.38;;
66256;SDS011;53049;43.446;3.698;2023-07-31T11:30:29;7.95;;;2.88;;
66256;SDS011;53049;43.446;3.698;2023-07-31T11:32:55;4.47;;;2.53;;
66256;SDS011;53049;43.446;3.698;2023-07-31T11:35:21;13.63;;;3.97;;
66256;SDS011;53049;43.446;3.698;2023-07-31T11:37:47;6.40;;;2.90;;
66256;SDS011;53049;43.446;3.698;2023-07-31T11:40:13;4.40;;;2.58;;
66256;SDS011;53049;43.446;3.698;2023-07-31T11:42:40;9.27;;;3.20;;
66256;SDS011;53049;43.446;3.698;2023-07-31T11:45:06;10.02;;;3.22;;
66256;SDS011;53049;43.446;3.698;2023-07-31T11:47:35;6.93;;;3.00;;
66256;SDS011;53049;43.446;3.698;2023-07-31T11:50:02;7.18;;;3.13;;
66256;SDS011;53049;43.446;3.698;2023-07-31T11:52:38;7.30;;;2.97;;
66256;SDS011;53049;43.446;3.698;2023-07-31T11:55:07;7.63;;;3.63;;
66256;SDS011;53049;43.446;3.698;2023-07-31T11:57:35;5.68;;;2.85;;
66256;SDS011;53049;43.446;3.698;2023-07-31T12:00:03;7.53;;;2.88;;
66256;SDS011;53049;43.446;3.698;2023-07-31T12:02:29;6.18;;;2.95;;
66256;SDS011;53049;43.446;3.698;2023-07-31T12:04:55;5.25;;;2.85;;
66256;SDS011;53049;43.446;3.698;2023-07-31T12:07:21;4.82;;;2.92;;
66256;SDS011;53049;43.446;3.698;2023-07-31T12:09:52;5.47;;;3.00;;
66256;SDS011;53049;43.446;3.698;2023-07-31T12:12:19;10.93;;;3.72;;
66256;SDS011;53049;43.446;3.698;2023-07-31T12:14:46;6.57;;;2.97;;
66256;SDS011;53049;43.446;3.698;2023-07-31T12:17:12;9.25;;;2.85;;
66256;SDS011;53049;43.446;3.698;2023-07-31T12:19:39;5.53;;;2.80;;
66256;SDS011;53049;43.446;3.698;2023-07-31T12:22:14;6.18;;;2.80;;
66256;SDS011;53049;43.446;3.698;2023-07-31T12:24:42;7.10;;;3.38;;
66256;SDS011;53049;43.446;3.698;2023-07-31T12:27:12;5.93;;;2.95;;
66256;SDS011;53049;43.446;3.698;2023-07-31T12:29:39;8.88;;;3.10;;
66256;SDS011;53049;43.446;3.698;2023-07-31T12:32:30;9.38;;;3.70;;
66256;SDS011;53049;43.446;3.698;2023-07-31T12:34:55;10.07;;;3.50;;
66256;SDS011;53049;43.446;3.698;2023-07-31T12:37:24;6.00;;;2.55;;
66256;SDS011;53049;43.446;3.698;2023-07-31T12:39:50;7.05;;;3.05;;
66256;SDS011;53049;43.446;3.698;2023-07-31T12:42:17;5.95;;;2.50;;
66256;SDS011;53049;43.446;3.698;2023-07-31T12:44:43;7.13;;;2.88;;
66256;SDS011;53049;43.446;3.698;2023-07-31T12:47:08;5.57;;;2.80;;
66256;SDS011;53049;43.446;3.698;2023-07-31T12:49:34;6.88;;;3.20;;
66256;SDS011;53049;43.446;3.698;2023-07-31T12:52:00;5.85;;;2.83;;
66256;SDS011;53049;43.446;3.698;2023-07-31T12:54:25;6.47;;;3.22;;
66256;SDS011;53049;43.446;3.698;2023-07-31T12:56:51;7.03;;;2.95;;
66256;SDS011;53049;43.446;3.698;2023-07-31T12:59:16;6.50;;;3.00;;
66256;SDS011;53049;43.446;3.698;2023-07-31T13:01:42;6.05;;;3.10;;
66256;SDS011;53049;43.446;3.698;2023-07-31T13:04:08;6.93;;;2.90;;
66256;SDS011;53049;43.446;3.698;2023-07-31T13:06:34;4.35;;;3.05;;
66256;SDS011;53049;43.446;3.698;2023-07-31T13:08:59;4.88;;;2.78;;
66256;SDS011;53049;43.446;3.698;2023-07-31T13:11:25;4.47;;;2.80;;
66256;SDS011;53049;43.446;3.698;2023-07-31T13:13:51;6.50;;;3.33;;
66256;SDS011;53049;43.446;3.698;2023-07-31T13:16:16;6.82;;;3.10;;
66256;SDS011;53049;43.446;3.698;2023-07-31T13:18:42;5.15;;;2.78;;
66256;SDS011;53049;43.446;3.698;2023-07-31T13:21:07;6.43;;;3.10;;
66256;SDS011;53049;43.446;3.698;2023-07-31T13:23:33;7.72;;;2.95;;
66256;SDS011;53049;43.446;3.698;2023-07-31T13:25:59;4.90;;;2.75;;
66256;SDS011;53049;43.446;3.698;2023-07-31T13:28:24;7.25;;;3.03;;
66256;SDS011;53049;43.446;3.698;2023-07-31T13:30:50;8.75;;;3.42;;
66256;SDS011;53049;43.446;3.698;2023-07-31T13:33:16;8.07;;;3.22;;
66256;SDS011;53049;43.446;3.698;2023-07-31T13:35:41;7.05;;;3.35;;
66256;SDS011;53049;43.446;3.698;2023-07-31T13:38:07;7.47;;;3.22;;
66256;SDS011;53049;43.446;3.698;2023-07-31T13:40:32;7.57;;;3.17;;
66256;SDS011;53049;43.446;3.698;2023-07-31T13:42:58;5.25;;;2.90;;
66256;SDS011;53049;43.446;3.698;2023-07-31T13:45:24;6.18;;;3.17;;
66256;SDS011;53049;43.446;3.698;2023-07-31T13:47:50;8.45;;;3.55;;
66256;SDS011;53049;43.446;3.698;2023-07-31T13:50:16;5.05;;;2.78;;
66256;SDS011;53049;43.446;3.698;2023-07-31T13:52:44;5.82;;;3.00;;
66256;SDS011;53049;43.446;3.698;2023-07-31T13:55:09;5.40;;;2.70;;
66256;SDS011;53049;43.446;3.698;2023-07-31T13:57:35;5.68;;;3.03;;
66256;SDS011;53049;43.446;3.698;2023-07-31T14:00:01;10.13;;;3.20;;
66256;SDS011;53049;43.446;3.698;2023-07-31T14:02:27;10.45;;;3.28;;
66256;SDS011;53049;43.446;3.698;2023-07-31T14:04:52;7.07;;;2.92;;
66256;SDS011;53049;43.446;3.698;2023-07-31T14:07:18;6.22;;;3.00;;
66256;SDS011;53049;43.446;3.698;2023-07-31T14:09:44;7.00;;;2.95;;
66256;SDS011;53049;43.446;3.698;2023-07-31T14:12:09;5.25;;;2.90;;
66256;SDS011;53049;43.446;3.698;2023-07-31T14:14:38;5.63;;;3.20;;
66256;SDS011;53049;43.446;3.698;2023-07-31T14:17:04;6.22;;;3.38;;
66256;SDS011;53049;43.446;3.698;2023-07-31T14:19:30;6.88;;;3.03;;
66256;SDS011;53049;43.446;3.698;2023-07-31T14:21:58;5.45;;;3.08;;
66256;SDS011;53049;43.446;3.698;2023-07-31T14:24:24;6.15;;;3.50;;
66256;SDS011;53049;43.446;3.698;2023-07-31T14:26:49;7.30;;;2.97;;
66256;SDS011;53049;43.446;3.698;2023-07-31T14:29:15;7.78;;;3.10;;
66256;SDS011;53049;43.446;3.698;2023-07-31T14:31:40;4.75;;;2.78;;
66256;SDS011;53049;43.446;3.698;2023-07-31T14:34:06;6.20;;;3.10;;
66256;SDS011;53049;43.446;3.698;2023-07-31T14:36:32;4.85;;;2.90;;
66256;SDS011;53049;43.446;3.698;2023-07-31T14:38:57;5.80;;;2.95;;
66256;SDS011;53049;43.446;3.698;2023-07-31T14:41:23;5.60;;;3.33;;
66256;SDS011;53049;43.446;3.698;2023-07-31T14:43:49;7.25;;;3.05;;
66256;SDS011;53049;43.446;3.698;2023-07-31T14:46:14;5.07;;;2.70;;
66256;SDS011;53049;43.446;3.698;2023-07-31T14:48:40;7.50;;;3.58;;
66256;SDS011;53049;43.446;3.698;2023-07-31T14:51:05;7.03;;;3.20;;
66256;SDS011;53049;43.446;3.698;2023-07-31T14:53:31;6.10;;;3.20;;
66256;SDS011;53049;43.446;3.698;2023-07-31T14:55:57;7.55;;;2.60;;
66256;SDS011;53049;43.446;3.698;2023-07-31T14:58:22;5.38;;;2.80;;
66256;SDS011;53049;43.446;3.698;2023-07-31T15:00:49;4.78;;;2.83;;